UACC 160900Z 04003MPS 9999 VCTS SCT040CB BKN043 30/15 Q1013 TEMPO VRB18MPS 3100 -TSRA SQ BKN030CB RMK QFE728/0971
QNH:(hPa/inHg/mmHg)1013 / 29.91 / 760
QFE:(hPa/inHg/mmHg)970 / 28.64 / 727
Temperature30
Dew Point15
Visibility3100
WeatherVicinity Thunderstorm;Light Thunderstorm Rain;Squalls
Cloud CoverSCT (4000);
BKN (4300);
BKN (3000);
Transition Altitude10000 ft.
Transition LevelFL110
SQUAWK